createdAt,value
2023-02-09T11:49:04.152Z,76885.16
2023-02-09T11:50:10.608Z,76981.66
2023-02-09T11:51:20.201Z,76804.72
2023-02-09T11:52:36.386Z,76718.25
2023-02-09T11:54:03.917Z,76905.25
2023-02-09T11:55:25.397Z,77033.94
2023-02-09T11:56:28.873Z,77009.81
2023-02-09T11:57:36.145Z,76923.34
2023-02-09T11:58:59.838Z,76838.91
2023-02-09T12:00:05.426Z,76790.63
2023-02-09T12:01:26.494Z,76740.38
2023-02-09T12:03:01.318Z,76961.56
2023-02-09T12:04:12.877Z,76983.69
2023-02-09T12:05:19.340Z,76945.47
2023-02-09T12:06:23.171Z,76891.19
2023-02-09T12:07:56.521Z,76832.88
2023-02-09T12:09:35.504Z,76718.25
2023-02-09T12:11:11.780Z,76641.84
2023-02-09T12:12:33.036Z,76623.75
2023-02-09T12:14:09.561Z,76619.72
2023-02-09T12:15:15.678Z,76535.28
2023-02-09T12:16:31.123Z,76873.09
2023-02-09T12:17:38.819Z,76786.63
2023-02-09T12:18:42.291Z,76684.06
2023-02-09T12:19:46.445Z,76641.84
2023-02-09T12:20:54.419Z,76728.31
2023-02-09T12:21:56.378Z,76953.50
2023-02-09T12:23:01.971Z,76877.09
2023-02-09T12:24:26.920Z,76762.50
2023-02-09T12:25:51.414Z,76684.06
2023-02-09T12:26:57.032Z,76623.75
2023-02-09T12:28:13.362Z,76633.81
2023-02-09T12:29:35.437Z,76595.59
2023-02-09T12:30:39.935Z,76527.22
2023-02-09T12:32:04.018Z,76551.38
2023-02-09T12:33:24.511Z,76925.38
2023-02-09T12:34:35.317Z,76961.56
2023-02-09T12:35:40.906Z,76863.03
2023-02-09T12:37:12.335Z,76738.34
2023-02-09T12:38:19.600Z,76712.22
2023-02-09T12:39:24.376Z,76641.84
2023-02-09T12:40:36.277Z,76617.72
2023-02-09T12:41:39.575Z,76567.44
2023-02-09T12:42:45.020Z,76505.13
2023-02-09T12:43:47.835Z,76478.97
2023-02-09T12:44:58.041Z,76434.75
2023-02-09T12:46:28.624Z,76408.59
2023-02-09T12:47:55.943Z,76458.88
2023-02-09T12:49:09.820Z,76434.75
2023-02-09T12:50:44.132Z,76418.66
2023-02-09T12:51:54.673Z,76537.28
2023-02-09T12:53:32.484Z,76495.06
2023-02-09T12:54:58.263Z,76468.94
2023-02-09T12:56:03.025Z,76501.09
2023-02-09T12:57:16.738Z,76575.50
2023-02-09T12:58:54.366Z,76625.75
2023-02-09T12:59:56.808Z,76585.53
2023-02-09T13:00:58.903Z,76680.03
2023-02-09T13:02:12.656Z,76688.09
2023-02-09T13:03:19.402Z,76758.47
2023-02-09T13:04:23.207Z,76696.13
2023-02-09T13:05:39.716Z,76613.69
2023-02-09T13:06:49.683Z,76758.47
2023-02-09T13:08:16.470Z,76752.44
2023-02-09T13:09:34.623Z,76663.97
2023-02-09T13:10:48.772Z,76740.38
2023-02-09T13:11:56.499Z,76732.31
2023-02-09T13:13:06.541Z,76702.16
2023-02-09T13:14:14.577Z,76607.66
2023-02-09T13:15:19.108Z,76752.44
2023-02-09T13:16:29.957Z,76720.25
2023-02-09T13:18:07.094Z,76655.91
2023-02-09T13:19:20.634Z,76573.47
2023-02-09T13:21:06.021Z,76575.50
2023-02-09T13:22:35.515Z,76615.72
2023-02-09T13:24:01.121Z,76655.91
2023-02-09T13:25:32.501Z,76589.56
2023-02-09T13:26:51.918Z,76657.94
2023-02-09T13:27:53.702Z,76678.03
2023-02-09T13:29:20.489Z,76676.03
2023-02-09T13:30:31.977Z,76625.75
2023-02-09T13:31:42.977Z,76802.69
2023-02-09T13:32:56.869Z,76953.50
2023-02-09T13:34:14.432Z,76929.38
2023-02-09T13:35:38.292Z,77150.59
2023-02-09T13:37:00.433Z,77202.88
2023-02-09T13:38:16.811Z,77218.97
2023-02-09T13:39:26.676Z,77295.38
2023-02-09T13:40:32.494Z,77243.09
2023-02-09T13:41:40.993Z,77146.56
2023-02-09T13:43:01.788Z,77074.16
2023-02-09T13:44:03.848Z,76991.72
2023-02-09T13:45:17.444Z,77031.94
2023-02-09T13:46:28.286Z,76953.50
2023-02-09T13:47:30.265Z,76905.25
2023-02-09T13:48:35.150Z,76883.13
2023-02-09T13:49:36.933Z,76893.19
2023-02-09T13:50:47.322Z,76953.50
2023-02-09T13:52:12.077Z,76971.63
2023-02-09T13:53:18.044Z,76971.63
2023-02-09T13:54:20.697Z,76943.47
2023-02-09T13:55:26.079Z,76981.66
2023-02-09T13:56:29.648Z,76937.44
2023-02-09T13:57:37.183Z,76957.53
2023-02-09T13:58:40.269Z,76941.44
2023-02-09T13:59:42.755Z,76961.56
2023-02-09T14:00:58.056Z,76921.34
2023-02-09T14:02:19.517Z,76895.19
2023-02-09T14:04:23.124Z,76893.19
2023-02-09T14:06:13.535Z,76897.22
2023-02-09T14:07:16.689Z,76883.13
2023-02-09T14:08:20.418Z,76897.22
2023-02-09T14:09:29.356Z,76881.13
2023-02-09T14:10:33.951Z,76873.09
2023-02-09T14:12:03.961Z,76873.09
2023-02-09T14:13:23.537Z,76832.88
2023-02-09T14:14:51.973Z,76848.94
2023-02-09T14:16:08.919Z,76905.25
2023-02-09T14:17:25.618Z,76959.56
2023-02-09T14:18:31.501Z,76921.34
2023-02-09T14:19:33.774Z,77029.94
2023-02-09T14:20:40.114Z,77192.81
2023-02-09T14:21:44.889Z,77307.44
2023-02-09T14:22:56.737Z,77468.34
2023-02-09T14:24:00.139Z,77414.03
2023-02-09T14:25:29.326Z,77327.56
2023-02-09T14:26:43.259Z,77247.13
2023-02-09T14:27:48.265Z,77267.22
2023-02-09T14:29:15.702Z,77247.13
2023-02-09T14:30:26.645Z,77420.06
2023-02-09T14:31:34.284Z,77480.41
2023-02-09T14:32:47.939Z,77548.78
2023-02-09T14:33:53.512Z,77460.28
2023-02-09T14:34:59.448Z,77401.97
2023-02-09T14:36:03.971Z,77375.81
2023-02-09T14:37:18.607Z,77424.09
2023-02-09T14:38:42.901Z,77385.88
2023-02-09T14:40:04.905Z,77363.75
2023-02-09T14:41:43.553Z,77267.22
2023-02-09T14:43:22.798Z,77212.94
2023-02-09T14:44:26.319Z,77174.72
2023-02-09T14:45:31.555Z,77156.63
2023-02-09T14:47:03.171Z,77170.69
2023-02-09T14:48:26.466Z,77218.97
2023-02-09T14:49:29.570Z,77299.41
2023-02-09T14:50:33.687Z,77259.19
2023-02-09T14:51:44.262Z,77239.06
2023-02-09T14:52:49.579Z,77220.97
2023-02-09T14:53:51.320Z,77186.78
2023-02-09T14:54:53.206Z,77170.69
2023-02-09T14:56:00.935Z,77178.75
2023-02-09T14:57:03.936Z,77337.63
2023-02-09T14:58:27.725Z,77371.81
2023-02-09T14:59:29.792Z,77393.91
2023-02-09T15:00:34.010Z,77319.50
2023-02-09T15:01:35.806Z,77345.66
2023-02-09T15:02:37.898Z,77492.47
2023-02-09T15:03:40.006Z,77556.81
2023-02-09T15:04:42.498Z,77645.31
2023-02-09T15:05:45.972Z,77609.13
2023-02-09T15:06:52.105Z,77526.66
2023-02-09T15:07:59.555Z,77496.50
2023-02-09T15:09:02.895Z,77486.44
2023-02-09T15:10:13.744Z,77464.31
2023-02-09T15:11:42.836Z,77470.34
2023-02-09T15:12:47.816Z,77490.47
2023-02-09T15:13:56.159Z,77464.31
2023-02-09T15:15:02.509Z,77416.03
2023-02-09T15:16:04.890Z,77446.22
2023-02-09T15:17:19.084Z,77478.38
2023-02-09T15:18:26.957Z,77452.25
2023-02-09T15:19:28.648Z,77452.25
2023-02-09T15:20:31.850Z,77432.13
2023-02-09T15:21:33.952Z,77456.25
2023-02-09T15:22:38.660Z,77480.41
2023-02-09T15:23:41.126Z,77564.88
2023-02-09T15:24:44.873Z,77713.69
2023-02-09T15:25:46.957Z,77745.88
2023-02-09T15:26:50.412Z,77814.25
2023-02-09T15:28:01.078Z,77850.47
2023-02-09T15:29:09.943Z,77910.81
2023-02-09T15:30:23.253Z,78017.41
2023-02-09T15:31:28.941Z,78150.16
2023-02-09T15:32:31.047Z,78216.53
2023-02-09T15:33:33.997Z,78248.72
2023-02-09T15:34:35.938Z,78258.78
2023-02-09T15:35:40.861Z,78276.88
2023-02-09T15:36:43.196Z,78327.19
2023-02-09T15:37:51.580Z,78375.44
2023-02-09T15:38:54.929Z,78393.56
2023-02-09T15:40:01.824Z,78415.69
2023-02-09T15:41:22.023Z,78421.72
2023-02-09T15:42:42.680Z,78461.94
2023-02-09T15:44:03.015Z,78492.13
2023-02-09T15:45:35.207Z,78512.25
2023-02-09T15:46:56.268Z,78558.50
2023-02-09T15:47:59.669Z,78574.59
2023-02-09T15:49:01.770Z,78576.63
2023-02-09T15:50:04.174Z,78598.75
2023-02-09T15:51:05.992Z,78634.97
2023-02-09T15:52:08.593Z,78651.03
2023-02-09T15:53:15.506Z,78677.19
2023-02-09T15:54:25.260Z,78711.41
2023-02-09T15:55:32.367Z,78733.53
2023-02-09T15:56:36.785Z,78753.66
2023-02-09T15:57:40.316Z,78771.75
2023-02-09T15:58:45.528Z,78781.81
2023-02-09T15:59:50.691Z,78818.03
2023-02-09T16:00:52.325Z,78828.09
2023-02-09T16:01:55.746Z,78822.06
2023-02-09T16:03:06.243Z,78832.09
2023-02-09T16:04:15.377Z,78862.28
2023-02-09T16:05:18.342Z,78892.47
2023-02-09T16:06:26.011Z,78868.31
2023-02-09T16:07:28.779Z,78872.34
2023-02-09T16:08:33.659Z,78888.44
2023-02-09T16:09:36.246Z,78900.50
2023-02-09T16:10:38.317Z,78926.66
2023-02-09T16:11:41.202Z,78926.66
2023-02-09T16:12:43.336Z,78922.63
2023-02-09T16:13:48.905Z,78948.78
2023-02-09T16:14:53.097Z,78952.81
2023-02-09T16:16:00.302Z,78960.88
2023-02-09T16:17:09.878Z,78983.00
2023-02-09T16:18:12.177Z,78985.00
2023-02-09T16:19:14.556Z,78999.09
2023-02-09T16:20:19.920Z,79021.22
2023-02-09T16:21:33.957Z,79029.28
2023-02-09T16:22:39.076Z,79049.38
2023-02-09T16:23:41.235Z,79057.44
2023-02-09T16:24:45.938Z,79073.53
2023-02-09T16:25:53.376Z,79085.59
2023-02-09T16:26:57.852Z,79109.75
2023-02-09T16:28:00.761Z,79117.78
2023-02-09T16:29:02.576Z,79117.78
2023-02-09T16:30:15.694Z,79123.84
2023-02-09T16:31:19.540Z,79129.88
2023-02-09T16:32:23.282Z,79135.91
2023-02-09T16:33:26.827Z,79133.88
2023-02-09T16:34:28.684Z,79141.94
2023-02-09T16:35:31.433Z,79141.94
2023-02-09T16:36:35.394Z,79152.00
2023-02-09T16:37:37.234Z,79162.06
2023-02-09T16:38:39.208Z,79158.03
2023-02-09T16:39:41.539Z,79176.16
2023-02-09T16:40:43.567Z,79174.13
2023-02-09T16:41:53.720Z,79186.19
2023-02-09T16:42:59.057Z,79192.25
2023-02-09T16:44:05.029Z,79202.31
2023-02-09T16:45:17.868Z,79210.34
2023-02-09T16:46:20.688Z,79222.41
2023-02-09T16:47:26.762Z,79230.47
2023-02-09T16:48:31.448Z,79238.50
2023-02-09T16:49:39.045Z,79240.53
2023-02-09T16:50:45.198Z,79274.72
2023-02-09T16:51:48.380Z,79268.69
2023-02-09T16:52:54.371Z,79266.69
2023-02-09T16:53:57.661Z,79284.78
2023-02-09T16:55:05.826Z,79294.84
2023-02-09T16:56:15.709Z,79302.91
2023-02-09T16:57:23.577Z,79316.97
2023-02-09T16:58:26.933Z,79325.03
2023-02-09T16:59:29.809Z,79335.09
2023-02-09T17:00:37.982Z,79337.09
2023-02-09T17:01:40.250Z,79347.16
2023-02-09T17:02:53.391Z,79341.13
2023-02-09T17:03:56.641Z,79347.16
2023-02-09T17:04:59.389Z,79341.13
2023-02-09T17:06:02.691Z,79347.16
2023-02-09T17:07:05.232Z,79353.19
2023-02-09T17:08:33.019Z,79367.28
2023-02-09T17:09:35.308Z,79373.31
2023-02-09T17:10:37.214Z,79383.38
2023-02-09T17:11:41.289Z,79389.41
2023-02-09T17:12:43.956Z,79411.56
2023-02-09T17:13:46.319Z,79419.59
2023-02-09T17:14:51.026Z,79417.59
2023-02-09T17:15:55.670Z,79419.59
2023-02-09T17:16:57.408Z,79425.63
2023-02-09T17:18:09.111Z,79427.66
2023-02-09T17:19:15.386Z,79435.69
2023-02-09T17:20:21.100Z,79449.78
2023-02-09T17:21:35.210Z,79453.81
2023-02-09T17:22:37.082Z,79447.78
2023-02-09T17:23:39.189Z,79443.75
2023-02-09T17:24:42.065Z,79453.81
2023-02-09T17:25:44.898Z,79439.72
2023-02-09T17:26:47.072Z,79451.78
2023-02-09T17:27:50.494Z,79443.75
2023-02-09T17:28:52.588Z,79447.78
2023-02-09T17:29:54.302Z,79453.81
2023-02-09T17:30:58.729Z,79455.81
2023-02-09T17:32:03.017Z,79459.84
2023-02-09T17:33:08.527Z,79459.84
2023-02-09T17:34:15.834Z,79469.91
2023-02-09T17:35:44.599Z,79471.91
2023-02-09T17:36:46.415Z,79486.00
2023-02-09T17:37:49.487Z,79508.13
2023-02-09T17:38:53.861Z,79504.09
2023-02-09T17:39:56.717Z,79512.16
2023-02-09T17:41:02.408Z,79528.25
2023-02-09T17:42:04.247Z,79530.25
2023-02-09T17:43:06.402Z,79532.28
2023-02-09T17:44:39.683Z,79540.31
2023-02-09T17:45:49.050Z,79548.38
2023-02-09T17:46:52.487Z,79548.38
2023-02-09T17:47:57.991Z,79560.44
2023-02-09T17:49:00.100Z,79554.41
2023-02-09T17:50:02.340Z,79554.41
2023-02-09T17:51:06.953Z,79572.53
2023-02-09T17:52:21.228Z,79560.44
2023-02-09T17:53:26.379Z,79562.47
2023-02-09T17:54:34.500Z,79560.44
2023-02-09T17:55:38.582Z,79556.44
2023-02-09T17:56:40.945Z,79564.47
2023-02-09T17:57:46.039Z,79568.50
2023-02-09T17:58:48.083Z,79576.56
2023-02-09T17:59:51.004Z,79582.59
2023-02-09T18:00:56.628Z,79568.50
2023-02-09T18:02:01.291Z,79586.59
2023-02-09T18:03:03.433Z,79566.50
2023-02-09T18:04:05.807Z,79560.44
2023-02-09T18:05:08.224Z,79564.47
2023-02-09T18:06:15.265Z,79564.47
2023-02-09T18:07:20.886Z,79564.47
2023-02-09T18:08:23.008Z,79562.47
2023-02-09T18:09:25.904Z,79560.44
2023-02-09T18:10:31.332Z,79568.50
2023-02-09T18:11:45.229Z,79568.50
2023-02-09T18:12:50.640Z,79576.56
2023-02-09T18:13:53.785Z,79584.59
2023-02-09T18:14:55.988Z,79594.66
2023-02-09T18:15:57.949Z,79598.69
2023-02-09T18:17:00.384Z,79626.84
2023-02-09T18:18:04.427Z,79624.84
2023-02-09T18:19:06.662Z,79628.88
2023-02-09T18:20:15.150Z,79632.88
2023-02-09T18:21:17.041Z,79642.94
2023-02-09T18:22:23.070Z,79640.94
2023-02-09T18:23:27.679Z,79636.91
2023-02-09T18:24:32.931Z,79640.94
2023-02-09T18:25:37.784Z,79640.94
2023-02-09T18:26:41.628Z,79634.91
2023-02-09T18:27:43.491Z,79644.97
2023-02-09T18:28:47.431Z,79649.00
2023-02-09T18:29:52.554Z,79669.09
2023-02-09T18:30:54.716Z,79659.03
2023-02-09T18:32:01.629Z,79669.09
2023-02-09T18:33:06.018Z,79683.19
2023-02-09T18:34:10.329Z,79687.22
2023-02-09T18:35:44.602Z,79681.19
2023-02-09T18:36:48.228Z,79681.19
2023-02-09T18:37:53.324Z,79689.22
2023-02-09T18:38:56.109Z,79693.25
2023-02-09T18:40:03.286Z,79689.22
2023-02-09T18:41:06.018Z,79693.25
2023-02-09T18:42:14.636Z,79693.25
2023-02-09T18:43:19.440Z,79701.31
2023-02-09T18:44:27.706Z,79681.19
2023-02-09T18:45:35.591Z,79667.09
2023-02-09T18:46:38.287Z,79677.16
2023-02-09T18:47:40.710Z,79677.16
2023-02-09T18:48:42.842Z,79671.13
2023-02-09T18:49:45.536Z,79679.16
2023-02-09T18:50:47.490Z,79675.16
2023-02-09T18:51:53.862Z,79693.25
2023-02-09T18:53:02.211Z,79681.19
2023-02-09T18:54:06.074Z,79679.16
2023-02-09T18:55:09.257Z,79689.22
2023-02-09T18:56:22.397Z,79683.19
2023-02-09T18:57:29.223Z,79679.16
2023-02-09T18:58:31.982Z,79681.19
2023-02-09T18:59:34.368Z,79681.19
2023-02-09T19:00:39.087Z,79683.19
2023-02-09T19:01:42.100Z,79681.19
2023-02-09T19:02:48.082Z,79679.16
2023-02-09T19:03:55.671Z,79671.13
2023-02-09T19:04:58.376Z,79669.09
2023-02-09T19:06:01.767Z,79669.09
2023-02-09T19:07:04.250Z,79663.06
2023-02-09T19:08:07.538Z,79659.03
2023-02-09T19:09:14.908Z,79655.03
2023-02-09T19:10:19.991Z,79655.03
2023-02-09T19:11:25.091Z,79665.09
2023-02-09T19:12:28.957Z,79669.09
2023-02-09T19:13:34.077Z,79677.16
2023-02-09T19:14:42.609Z,79691.25
2023-02-09T19:15:48.146Z,79693.25
2023-02-09T19:16:50.400Z,79703.31
2023-02-09T19:17:56.735Z,79709.34
2023-02-09T19:18:59.271Z,79717.41
2023-02-09T19:20:05.018Z,79711.38
2023-02-09T19:21:13.656Z,79709.34
2023-02-09T19:22:18.371Z,79717.41
2023-02-09T19:23:20.372Z,79729.47
2023-02-09T19:24:24.604Z,79729.47
2023-02-09T19:25:30.525Z,79737.53
2023-02-09T19:26:38.171Z,79741.56
2023-02-09T19:27:44.545Z,79737.53
2023-02-09T19:28:48.369Z,79717.41
2023-02-09T19:29:57.402Z,79721.44
2023-02-09T19:30:59.866Z,79723.44
2023-02-09T19:32:03.006Z,79713.38
2023-02-09T19:33:05.113Z,79713.38
2023-02-09T19:34:06.909Z,79715.38
2023-02-09T19:35:09.086Z,79725.44
2023-02-09T19:36:12.835Z,79725.44
2023-02-09T19:37:15.480Z,79725.44
2023-02-09T19:38:17.381Z,79733.50
2023-02-09T19:39:20.256Z,79741.56
2023-02-09T19:40:35.960Z,79773.75
2023-02-09T19:41:38.127Z,79721.44
2023-02-09T19:42:39.862Z,79741.56
2023-02-09T19:43:42.032Z,79733.50
2023-02-09T19:44:43.962Z,79735.50
2023-02-09T19:45:48.069Z,79757.66
2023-02-09T19:46:50.731Z,79753.63
2023-02-09T19:47:53.067Z,79755.63
2023-02-09T19:48:55.200Z,79749.59
2023-02-09T19:50:00.865Z,79745.56
2023-02-09T19:51:02.956Z,79761.66
2023-02-09T19:52:06.051Z,79743.56
2023-02-09T19:53:08.327Z,79749.59
2023-02-09T19:54:10.486Z,79749.59
2023-02-09T19:55:15.107Z,79753.63
2023-02-09T19:56:23.816Z,79755.63
2023-02-09T19:57:27.269Z,79753.63
2023-02-09T19:58:29.391Z,79769.72
2023-02-09T19:59:36.800Z,79757.66
2023-02-09T20:00:39.990Z,79751.63
2023-02-09T20:01:42.365Z,79761.66
2023-02-09T20:02:46.567Z,79753.63
2023-02-09T20:03:50.293Z,79757.66
2023-02-09T20:04:52.936Z,79771.72
2023-02-09T20:05:56.152Z,79781.78
2023-02-09T20:06:57.993Z,79781.78
2023-02-09T20:07:59.844Z,79785.81
2023-02-09T20:09:02.257Z,79795.88
2023-02-09T20:10:05.157Z,79797.91
2023-02-09T20:11:09.291Z,79824.06
2023-02-09T20:12:11.963Z,79818.03
2023-02-09T20:13:16.617Z,79816.00
2023-02-09T20:14:19.265Z,79818.03
2023-02-09T20:15:21.787Z,79820.03
2023-02-09T20:16:26.035Z,79816.00
2023-02-09T20:17:28.282Z,79832.09
2023-02-09T20:18:30.964Z,79809.97
2023-02-09T20:19:37.797Z,79814.00
2023-02-09T20:20:42.843Z,79811.97
2023-02-09T20:21:46.607Z,79816.00
2023-02-09T20:22:51.974Z,79824.06
2023-02-09T20:23:56.225Z,79826.06
2023-02-09T20:24:58.077Z,79830.09
2023-02-09T20:26:00.113Z,79830.09
2023-02-09T20:27:01.895Z,79830.09
2023-02-09T20:28:05.126Z,79834.13
2023-02-09T20:29:08.399Z,79842.16
2023-02-09T20:30:11.440Z,79842.16
2023-02-09T20:31:21.775Z,79846.19
2023-02-09T20:32:23.714Z,79850.22
2023-02-09T20:33:27.047Z,79858.25
2023-02-09T20:34:32.061Z,79862.28
2023-02-09T20:35:33.997Z,79866.31
2023-02-09T20:36:41.852Z,79864.31
2023-02-09T20:37:44.823Z,79866.31
2023-02-09T20:38:47.100Z,79868.31
2023-02-09T20:39:49.116Z,79878.38
2023-02-09T20:40:50.773Z,79902.53
2023-02-09T20:42:19.560Z,79880.41
2023-02-09T20:43:39.985Z,79870.34
2023-02-09T20:45:01.312Z,79864.31
2023-02-09T20:46:26.516Z,79854.25
2023-02-09T20:47:30.318Z,79850.22
2023-02-09T20:48:32.694Z,79858.25
2023-02-09T20:49:39.623Z,79866.31
2023-02-09T20:50:41.393Z,79876.38
2023-02-09T20:51:44.769Z,79886.44
2023-02-09T20:52:46.689Z,79892.47
2023-02-09T20:53:49.742Z,79896.50
2023-02-09T20:54:51.775Z,79890.47
2023-02-09T20:55:54.866Z,79894.47
2023-02-09T20:56:56.819Z,79894.47
2023-02-09T20:57:58.647Z,79892.47
2023-02-09T20:59:01.869Z,79896.50
2023-02-09T21:00:09.519Z,79902.53
2023-02-09T21:01:12.053Z,79906.56
2023-02-09T21:02:17.008Z,79904.53
2023-02-09T21:03:21.339Z,79934.72
2023-02-09T21:04:23.801Z,79930.72
2023-02-09T21:05:25.587Z,79930.72
2023-02-09T21:06:30.028Z,79914.59
2023-02-09T21:07:34.641Z,79906.56
2023-02-09T21:08:40.732Z,79910.59
2023-02-09T21:09:42.768Z,79898.50
2023-02-09T21:10:44.883Z,79894.47
2023-02-09T21:11:49.621Z,79860.28
2023-02-09T21:12:53.874Z,79856.25
2023-02-09T21:13:55.933Z,79826.06
2023-02-09T21:14:59.517Z,79816.00
2023-02-09T21:16:03.242Z,79807.97
2023-02-09T21:17:06.984Z,79818.03
2023-02-09T21:18:11.681Z,79781.78
2023-02-09T21:19:14.634Z,79773.75
2023-02-09T21:20:17.099Z,79775.75
2023-02-09T21:21:19.833Z,79785.81
2023-02-09T21:22:22.776Z,79781.78
2023-02-09T21:23:24.507Z,79779.78
2023-02-09T21:24:27.311Z,79779.78
2023-02-09T21:25:29.981Z,79783.81
2023-02-09T21:26:31.908Z,79799.91
2023-02-09T21:27:34.486Z,79789.84
2023-02-09T21:28:36.857Z,79797.91
2023-02-09T21:29:40.059Z,79797.91
2023-02-09T21:30:44.631Z,79793.88
2023-02-09T21:31:49.393Z,79805.94
2023-02-09T21:32:51.321Z,79814.00
2023-02-09T21:33:54.946Z,79826.06
2023-02-09T21:34:57.793Z,79830.09
2023-02-09T21:35:59.446Z,79840.16
2023-02-09T21:37:03.538Z,79842.16
2023-02-09T21:38:05.936Z,79854.25
2023-02-09T21:39:10.436Z,79842.16
2023-02-09T21:40:13.492Z,79844.19
2023-02-09T21:41:41.963Z,79858.25
2023-02-09T21:42:45.872Z,79874.38
2023-02-09T21:43:47.838Z,79890.47
2023-02-09T21:44:54.091Z,79874.38
2023-02-09T21:45:57.054Z,79878.38
2023-02-09T21:47:00.551Z,79868.31
2023-02-09T21:48:02.720Z,79874.38
2023-02-09T21:49:06.570Z,79874.38
2023-02-09T21:50:12.853Z,79858.25
2023-02-09T21:51:18.197Z,79858.25
2023-02-09T21:52:20.129Z,79856.25
2023-02-09T21:53:21.807Z,79854.25
2023-02-09T21:54:26.214Z,79854.25
2023-02-09T21:55:31.263Z,79852.22
2023-02-09T21:56:33.223Z,79864.31
2023-02-09T21:57:36.231Z,79854.25
2023-02-09T21:58:37.969Z,79856.25
2023-02-09T21:59:39.680Z,79870.34
2023-02-09T22:00:43.214Z,79878.38
2023-02-09T22:01:44.998Z,79882.41
2023-02-09T22:02:53.259Z,79890.47
2023-02-09T22:03:59.821Z,79894.47
2023-02-09T22:05:05.325Z,79902.53
2023-02-09T22:06:07.310Z,79898.50
2023-02-09T22:07:11.032Z,79906.56
2023-02-09T22:08:15.767Z,79906.56
2023-02-09T22:09:20.363Z,79922.66
2023-02-09T22:10:22.838Z,79930.72
2023-02-09T22:11:27.048Z,79924.66
2023-02-09T22:12:29.137Z,79934.72
2023-02-09T22:13:31.693Z,79946.81
2023-02-09T22:14:33.616Z,79954.84
2023-02-09T22:15:35.684Z,79962.91
2023-02-09T22:16:38.730Z,79972.97
2023-02-09T22:17:40.617Z,79974.97
2023-02-09T22:18:45.504Z,79993.09
2023-02-09T22:19:48.589Z,79993.09
2023-02-09T22:20:51.200Z,79995.09
2023-02-09T22:21:53.028Z,79997.13
2023-02-09T22:22:55.039Z,80013.22
2023-02-09T22:23:58.672Z,80007.19
2023-02-09T22:25:00.377Z,80009.19
2023-02-09T22:26:05.905Z,80015.22
2023-02-09T22:27:07.859Z,80017.25
2023-02-09T22:28:09.629Z,80035.34
2023-02-09T22:29:13.483Z,80019.25
2023-02-09T22:30:18.835Z,80021.25
2023-02-09T22:31:21.861Z,80023.28
2023-02-09T22:32:25.118Z,80019.25
2023-02-09T22:33:29.859Z,80017.25
2023-02-09T22:34:31.776Z,80039.38
2023-02-09T22:35:33.487Z,80033.34
2023-02-09T22:36:36.592Z,80043.41
2023-02-09T22:37:40.157Z,80035.34
2023-02-09T22:38:44.629Z,80037.38
2023-02-09T22:39:47.651Z,80033.34
2023-02-09T22:40:49.911Z,80039.38
2023-02-09T22:41:51.805Z,80047.44
2023-02-09T22:42:53.874Z,80047.44
2023-02-09T22:43:58.608Z,80059.50
2023-02-09T22:45:00.991Z,80069.56
2023-02-09T22:46:03.185Z,80057.50
2023-02-09T22:47:04.948Z,80067.56
2023-02-09T22:48:07.028Z,80061.50
2023-02-09T22:49:18.217Z,80073.59
2023-02-09T22:50:20.868Z,80073.59
2023-02-09T22:51:24.147Z,80079.63
2023-02-09T22:52:28.919Z,80081.63
2023-02-09T22:53:30.819Z,80083.66
2023-02-09T22:55:00.254Z,80089.69
2023-02-09T22:56:09.384Z,80093.72
2023-02-09T22:57:11.218Z,80103.78
2023-02-09T22:58:12.794Z,80109.81
2023-02-09T22:59:16.499Z,80103.78
2023-02-09T23:00:18.699Z,80109.81
2023-02-09T23:01:20.532Z,80107.81
2023-02-09T23:02:26.914Z,80109.81
2023-02-09T23:03:28.718Z,80107.81
2023-02-09T23:04:32.949Z,80111.81
2023-02-09T23:05:35.866Z,80113.84
2023-02-09T23:06:37.729Z,80119.88
2023-02-09T23:07:41.873Z,80142.00
2023-02-09T23:08:46.786Z,80109.81
2023-02-09T23:09:48.547Z,80117.88
2023-02-09T23:10:51.327Z,80117.88
2023-02-09T23:11:53.710Z,80127.94
2023-02-09T23:12:55.471Z,80154.09
2023-02-09T23:14:09.307Z,80156.09
2023-02-09T23:15:12.310Z,80144.03
2023-02-09T23:16:16.826Z,80152.06
2023-02-09T23:17:20.242Z,80152.06
2023-02-09T23:18:23.623Z,80156.09
2023-02-09T23:19:25.723Z,80160.13
2023-02-09T23:20:27.459Z,80158.13
2023-02-09T23:21:31.714Z,80140.00
2023-02-09T23:22:33.690Z,80135.97
2023-02-09T23:23:36.259Z,80117.88
2023-02-09T23:24:38.494Z,80111.81
2023-02-09T23:25:42.997Z,80111.81
2023-02-09T23:26:50.655Z,80119.88
2023-02-09T23:27:53.611Z,80123.91
2023-02-09T23:29:00.998Z,80113.84
2023-02-09T23:30:05.028Z,80158.13
2023-02-09T23:31:09.138Z,80133.97
2023-02-09T23:32:10.857Z,80152.06
2023-02-09T23:33:12.971Z,80156.09
2023-02-09T23:34:20.591Z,80152.06
2023-02-09T23:35:25.994Z,80152.06
2023-02-09T23:36:31.579Z,80150.06
2023-02-09T23:37:38.079Z,80188.28
2023-02-09T23:38:40.236Z,80144.03
2023-02-09T23:39:42.144Z,80135.97
2023-02-09T23:40:44.138Z,80156.09
2023-02-09T23:41:47.106Z,80140.00
2023-02-09T23:42:49.112Z,80156.09
2023-02-09T23:43:52.594Z,80152.06
2023-02-09T23:44:54.409Z,80154.09
2023-02-09T23:46:01.266Z,80162.13
2023-02-09T23:47:02.907Z,80150.06
2023-02-09T23:48:04.697Z,80148.06
2023-02-09T23:49:09.905Z,80138.00
2023-02-09T23:50:11.473Z,80135.97
2023-02-09T23:51:18.367Z,80133.97
2023-02-09T23:52:20.230Z,80119.88
2023-02-09T23:53:24.692Z,80129.94
2023-02-09T23:54:27.771Z,80111.81
2023-02-09T23:55:32.467Z,80107.81
2023-02-09T23:56:38.755Z,80083.66
2023-02-09T23:57:40.458Z,80093.72
2023-02-09T23:58:49.342Z,80099.75
2023-02-09T23:59:51.513Z,80099.75
